Station Historical Data
Daily Summary for January 22, 2018 Units:  Both    English   Metric
« Previous Day
Next Day »
Daily Weekly Monthly Yearly Custom
  High: Low: Average:
Temperature: TemperatureF °F /  -17.8 °C 37.3 °F /  2.9 °C 43.1 °F /  6.2 °C
Dew Point: DewpointF °F /  -17.8 °C 35.2 °F /  1.8 °C 41 °F /  5 °C
Humidity: Humidity% 86% 92%
Wind Speed: WindSpeedMPHmph /  0km/h - 0.8mph /  1.3km/h
Wind Gust: WindSpeedGustMPHmph /  0km/h - -
Wind- - East
Pressure: PressureIn in /  0 hPa 29.63 in /  1003.3 hPa -
Precipitation: 0.00 in /  0 mm    
Historical Graphs
 
 
Tabular Data for January 22, 2018
Time Temperature Dew Point Pressure Wind Wind Speed Wind Gust Humidity Rainfall Rate (Hourly)
TemperatureF °F /  -17.8 °C DewpointF °F /  -17.8 °C PressureInin /  0hPa Calm     Humidity% HourlyPrecipInin /  0mm
00:04 37.6 °F /  3.1 °C 35.5 °F /  1.9 °C 30.08in /  1018.5hPa Calm     92% 0.00in /  0mm
00:09 37.6 °F /  3.1 °C 35.5 °F /  1.9 °C 30.08in /  1018.5hPa Calm     92% 0.00in /  0mm
00:19 37.4 °F /  3 °C 35.3 °F /  1.8 °C 30.08in /  1018.5hPa Calm     92% 0.00in /  0mm
00:29 37.3 °F /  2.9 °C 35.2 °F /  1.8 °C 30.08in /  1018.5hPa Calm     92% 0.00in /  0mm
00:34 37.3 °F /  2.9 °C 35.2 °F /  1.8 °C 30.08in /  1018.5hPa Calm     92% 0.00in /  0mm
00:39 37.3 °F /  2.9 °C 35.2 °F /  1.8 °C 30.08in /  1018.5hPa Calm     92% 0.00in /  0mm
00:44 37.5 °F /  3.1 °C 35.4 °F /  1.9 °C 30.08in /  1018.5hPa Calm     92% 0.00in /  0mm
00:49 37.5 °F /  3.1 °C 35.4 °F /  1.9 °C 30.08in /  1018.5hPa Calm     92% 0.00in /  0mm
00:59 37.6 °F /  3.1 °C 35.5 °F /  1.9 °C 30.08in /  1018.5hPa Calm     92% 0.00in /  0mm
01:04 37.7 °F /  3.2 °C 35.6 °F /  2 °C 30.07in /  1018.2hPa Calm     92% 0.00in /  0mm
01:09 37.7 °F /  3.2 °C 35.6 °F /  2 °C 30.07in /  1018.2hPa Calm     92% 0.00in /  0mm
01:14 37.7 °F /  3.2 °C 35.6 °F /  2 °C 30.07in /  1018.2hPa Calm     92% 0.00in /  0mm
01:24 37.7 °F /  3.2 °C 35.6 °F /  2 °C 30.07in /  1018.2hPa Calm     92% 0.00in /  0mm
01:29 37.7 °F /  3.2 °C 35.6 °F /  2 °C 30.07in /  1018.2hPa Calm     92% 0.00in /  0mm
01:34 37.8 °F /  3.2 °C 35.7 °F /  2.1 °C 30.07in /  1018.2hPa Calm     92% 0.00in /  0mm
01:44 37.7 °F /  3.2 °C 35.6 °F /  2 °C 30.07in /  1018.2hPa Calm     92% 0.00in /  0mm
01:49 37.7 °F /  3.2 °C 35.6 °F /  2 °C 30.07in /  1018.2hPa Calm     92% 0.00in /  0mm
01:59 37.7 °F /  3.2 °C 35.6 °F /  2 °C 30.07in /  1018.2hPa Calm     92% 0.00in /  0mm
02:04 37.7 °F /  3.2 °C 35.6 °F /  2 °C 30.07in /  1018.2hPa Calm     92% 0.00in /  0mm
02:09 37.7 °F /  3.2 °C 35.6 °F /  2 °C 30.07in /  1018.2hPa Calm     92% 0.00in /  0mm
02:14 37.8 °F /  3.2 °C 35.7 °F /  2.1 °C 30.08in /  1018.5hPa Calm     92% 0.00in /  0mm
02:19 37.7 °F /  3.2 °C 35.6 °F /  2 °C 30.07in /  1018.2hPa Calm     92% 0.00in /  0mm
02:24 37.8 °F /  3.2 °C 35.7 °F /  2.1 °C 30.07in /  1018.2hPa Calm     92% 0.00in /  0mm
02:29 37.9 °F /  3.3 °C 35.8 °F /  2.1 °C 30.07in /  1018.2hPa Calm     92% 0.00in /  0mm
02:34 38.0 °F /  3.3 °C 35.9 °F /  2.2 °C 30.07in /  1018.2hPa Calm     92% 0.00in /  0mm
02:39 38.2 °F /  3.4 °C 36.1 °F /  2.3 °C 30.07in /  1018.2hPa Calm     92% 0.00in /  0mm
02:44 38.1 °F /  3.4 °C 36.0 °F /  2.2 °C 30.07in /  1018.2hPa Calm     92% 0.00in /  0mm
02:54 38.1 °F /  3.4 °C 36.0 °F /  2.2 °C 30.07in /  1018.2hPa Calm     92% 0.00in /  0mm
02:59 38.1 °F /  3.4 °C 36.3 °F /  2.4 °C 30.07in /  1018.2hPa Calm     93% 0.00in /  0mm
03:04 38.2 °F /  3.4 °C 36.4 °F /  2.4 °C 30.07in /  1018.2hPa Calm     93% 0.00in /  0mm
03:09 38.1 °F /  3.4 °C 36.3 °F /  2.4 °C 30.07in /  1018.2hPa Calm     93% 0.00in /  0mm
03:14 38.0 °F /  3.3 °C 35.9 °F /  2.2 °C 30.07in /  1018.2hPa Calm     92% 0.00in /  0mm
03:19 38.1 °F /  3.4 °C 36.3 °F /  2.4 °C 30.06in /  1017.8hPa Calm     93% 0.00in /  0mm
03:24 38.2 °F /  3.4 °C 36.4 °F /  2.4 °C 30.07in /  1018.2hPa Calm     93% 0.00in /  0mm
03:29 38.2 °F /  3.4 °C 36.4 °F /  2.4 °C 30.07in /  1018.2hPa Calm     93% 0.00in /  0mm
03:34 38.2 °F /  3.4 °C 36.4 °F /  2.4 °C 30.07in /  1018.2hPa Calm     93% 0.00in /  0mm
03:39 38.3 °F /  3.5 °C 36.5 °F /  2.5 °C 30.06in /  1017.8hPa Calm     93% 0.00in /  0mm
03:44 38.3 °F /  3.5 °C 36.5 °F /  2.5 °C 30.06in /  1017.8hPa Calm     93% 0.00in /  0mm
03:49 38.3 °F /  3.5 °C 36.5 °F /  2.5 °C 30.06in /  1017.8hPa Calm     93% 0.00in /  0mm
03:54 38.4 °F /  3.6 °C 36.6 °F /  2.6 °C 30.06in /  1017.8hPa Calm     93% 0.00in /  0mm
03:59 38.5 °F /  3.6 °C 36.7 °F /  2.6 °C 30.06in /  1017.8hPa Calm     93% 0.00in /  0mm
04:04 38.5 °F /  3.6 °C 36.7 °F /  2.6 °C 30.06in /  1017.8hPa Calm     93% 0.00in /  0mm
04:09 38.5 °F /  3.6 °C 36.7 °F /  2.6 °C 30.05in /  1017.5hPa Calm     93% 0.00in /  0mm
04:14 38.4 °F /  3.6 °C 36.6 °F /  2.6 °C 30.06in /  1017.8hPa Calm     93% 0.00in /  0mm
04:19 38.5 °F /  3.6 °C 36.7 °F /  2.6 °C 30.06in /  1017.8hPa Calm     93% 0.00in /  0mm
04:34 38.5 °F /  3.6 °C 36.7 °F /  2.6 °C 30.06in /  1017.8hPa Calm     93% 0.00in /  0mm
04:39 38.6 °F /  3.7 °C 36.8 °F /  2.7 °C 30.06in /  1017.8hPa Calm     93% 0.00in /  0mm
04:49 38.5 °F /  3.6 °C 36.7 °F /  2.6 °C 30.06in /  1017.8hPa Calm     93% 0.00in /  0mm
04:54 38.5 °F /  3.6 °C 36.7 °F /  2.6 °C 30.06in /  1017.8hPa Calm     93% 0.00in /  0mm
04:59 38.6 °F /  3.7 °C 36.8 °F /  2.7 °C 30.06in /  1017.8hPa Calm     93% 0.00in /  0mm
05:04 38.6 °F /  3.7 °C 36.8 °F /  2.7 °C 30.05in /  1017.5hPa Calm     93% 0.00in /  0mm
05:09 38.5 °F /  3.6 °C 36.7 °F /  2.6 °C 30.05in /  1017.5hPa Calm     93% 0.00in /  0mm
05:14 38.6 °F /  3.7 °C 36.8 °F /  2.7 °C 30.06in /  1017.8hPa Calm     93% 0.00in /  0mm
05:19 38.7 °F /  3.7 °C 36.9 °F /  2.7 °C 30.06in /  1017.8hPa Calm     93% 0.00in /  0mm
05:24 38.8 °F /  3.8 °C 36.9 °F /  2.7 °C 30.06in /  1017.8hPa Calm     93% 0.00in /  0mm
05:29 38.8 °F /  3.8 °C 36.9 °F /  2.7 °C 30.06in /  1017.8hPa Calm     93% 0.00in /  0mm
05:34 38.8 °F /  3.8 °C 36.9 °F /  2.7 °C 30.06in /  1017.8hPa Calm     93% 0.00in /  0mm
05:39 38.9 °F /  3.8 °C 37.0 °F /  2.8 °C 30.06in /  1017.8hPa Calm     93% 0.00in /  0mm
05:44 38.9 °F /  3.8 °C 37.0 °F /  2.8 °C 30.06in /  1017.8hPa Calm     93% 0.00in /  0mm
05:49 39.1 °F /  3.9 °C 37.2 °F /  2.9 °C 30.06in /  1017.8hPa Calm     93% 0.00in /  0mm
05:54 39.1 °F /  3.9 °C 37.2 °F /  2.9 °C 30.06in /  1017.8hPa Calm     93% 0.00in /  0mm
06:04 39.1 °F /  3.9 °C 37.2 °F /  2.9 °C 30.05in /  1017.5hPa Calm   3.0mph /  4.8km/h 93% 0.00in /  0mm
06:14 39.2 °F /  4 °C 37.3 °F /  2.9 °C 30.05in /  1017.5hPa SW 1.0mph /  1.6km/h 2.0mph /  3.2km/h 93% 0.00in /  0mm
06:24 39.4 °F /  4.1 °C 37.5 °F /  3.1 °C 30.05in /  1017.5hPa Calm     93% 0.00in /  0mm
06:29 39.3 °F /  4.1 °C 37.4 °F /  3 °C 30.05in /  1017.5hPa Calm     93% 0.00in /  0mm
06:34 39.3 °F /  4.1 °C 37.4 °F /  3 °C 30.05in /  1017.5hPa Calm     93% 0.00in /  0mm
06:39 39.3 °F /  4.1 °C 37.7 °F /  3.2 °C 30.06in /  1017.8hPa Calm     94% 0.00in /  0mm
06:49 39.3 °F /  4.1 °C 37.4 °F /  3 °C 30.07in /  1018.2hPa Calm     93% 0.01in /  0.25mm
06:54 39.3 °F /  4.1 °C 37.4 °F /  3 °C 30.07in /  1018.2hPa Calm     93% 0.01in /  0.25mm
06:59 39.5 °F /  4.2 °C 37.9 °F /  3.3 °C 30.07in /  1018.2hPa Calm     94% 0.01in /  0.25mm
07:04 39.3 °F /  4.1 °C 37.4 °F /  3 °C 30.06in /  1017.8hPa Calm     93% 0.01in /  0.25mm
07:09 39.4 °F /  4.1 °C 37.8 °F /  3.2 °C 30.06in /  1017.8hPa Calm     94% 0.01in /  0.25mm
07:14 39.5 °F /  4.2 °C 37.9 °F /  3.3 °C 30.05in /  1017.5hPa Calm     94% 0.01in /  0.25mm
07:19 39.5 °F /  4.2 °C 37.9 °F /  3.3 °C 30.05in /  1017.5hPa South 1.0mph /  1.6km/h 4.0mph /  6.4km/h 94% 0.01in /  0.25mm
07:24 39.6 °F /  4.2 °C 38.0 °F /  3.3 °C 30.05in /  1017.5hPa South 1.0mph /  1.6km/h 3.0mph /  4.8km/h 94% 0.01in /  0.25mm
07:29 39.7 °F /  4.3 °C 38.1 °F /  3.4 °C 30.06in /  1017.8hPa Calm   3.0mph /  4.8km/h 94% 0.01in /  0.25mm
07:34 39.7 °F /  4.3 °C 38.1 °F /  3.4 °C 30.05in /  1017.5hPa South 1.0mph /  1.6km/h 3.0mph /  4.8km/h 94% 0.01in /  0.25mm
07:39 39.8 °F /  4.3 °C 38.2 °F /  3.4 °C 30.05in /  1017.5hPa Calm   3.0mph /  4.8km/h 94% 0.01in /  0.25mm
07:44 39.7 °F /  4.3 °C 37.8 °F /  3.2 °C 30.05in /  1017.5hPa South 3.0mph /  4.8km/h 5.0mph /  8km/h 93% 0.01in /  0.25mm
07:54 39.7 °F /  4.3 °C 38.1 °F /  3.4 °C 30.04in /  1017.2hPa SSE 2.0mph /  3.2km/h 5.0mph /  8km/h 94% 0.00in /  0mm
07:59 39.7 °F /  4.3 °C 38.1 °F /  3.4 °C 30.04in /  1017.2hPa Calm   4.0mph /  6.4km/h 94% 0.00in /  0mm
08:04 39.6 °F /  4.2 °C 37.7 °F /  3.2 °C 30.04in /  1017.2hPa SSE 1.0mph /  1.6km/h 4.0mph /  6.4km/h 93% 0.00in /  0mm
08:09 39.6 °F /  4.2 °C 38.0 °F /  3.3 °C 30.04in /  1017.2hPa SSE 1.0mph /  1.6km/h 4.0mph /  6.4km/h 94% 0.00in /  0mm
08:14 39.6 °F /  4.2 °C 38.0 °F /  3.3 °C 30.04in /  1017.2hPa SSE 1.0mph /  1.6km/h 4.0mph /  6.4km/h 94% 0.01in /  0.25mm
08:19 39.7 °F /  4.3 °C 38.1 °F /  3.4 °C 30.04in /  1017.2hPa SSE 2.0mph /  3.2km/h 5.0mph /  8km/h 94% 0.01in /  0.25mm
08:24 39.7 °F /  4.3 °C 38.1 °F /  3.4 °C 30.04in /  1017.2hPa Calm   3.0mph /  4.8km/h 94% 0.01in /  0.25mm
08:29 39.9 °F /  4.4 °C 38.3 °F /  3.5 °C 30.04in /  1017.2hPa Calm   4.0mph /  6.4km/h 94% 0.01in /  0.25mm
08:34 39.9 °F /  4.4 °C 38.3 °F /  3.5 °C 30.03in /  1016.8hPa SSE 2.0mph /  3.2km/h 4.0mph /  6.4km/h 94% 0.01in /  0.25mm
08:44 40.1 °F /  4.5 °C 38.5 °F /  3.6 °C 30.03in /  1016.8hPa SE 2.0mph /  3.2km/h 5.0mph /  8km/h 94% 0.01in /  0.25mm
08:49 40.4 °F /  4.7 °C 38.8 °F /  3.8 °C 30.02in /  1016.5hPa ESE 3.0mph /  4.8km/h 8.0mph /  12.9km/h 94% 0.01in /  0.25mm
08:54 40.4 °F /  4.7 °C 38.8 °F /  3.8 °C 30.02in /  1016.5hPa East 1.0mph /  1.6km/h 6.0mph /  9.7km/h 94% 0.01in /  0.25mm
09:04 40.4 °F /  4.7 °C 38.8 °F /  3.8 °C 30.02in /  1016.5hPa Calm   7.0mph /  11.3km/h 94% 0.01in /  0.25mm
09:09 40.4 °F /  4.7 °C 38.8 °F /  3.8 °C 30.02in /  1016.5hPa East 2.0mph /  3.2km/h 5.0mph /  8km/h 94% 0.01in /  0.25mm
09:19 40.5 °F /  4.7 °C 38.9 °F /  3.8 °C 30.02in /  1016.5hPa East 2.0mph /  3.2km/h 5.0mph /  8km/h 94% 0.00in /  0mm
09:24 40.7 °F /  4.8 °C 39.1 °F /  3.9 °C 30.02in /  1016.5hPa East 2.0mph /  3.2km/h 6.0mph /  9.7km/h 94% 0.00in /  0mm
09:29 40.9 °F /  4.9 °C 39.3 °F /  4.1 °C 30.02in /  1016.5hPa East 2.0mph /  3.2km/h 7.0mph /  11.3km/h 94% 0.00in /  0mm
09:34 41.0 °F /  5 °C 39.4 °F /  4.1 °C 30.02in /  1016.5hPa East 6.0mph /  9.7km/h 6.0mph /  9.7km/h 94% 0.00in /  0mm
09:39 41.1 °F /  5.1 °C 39.5 °F /  4.2 °C 30.02in /  1016.5hPa ESE 3.0mph /  4.8km/h 6.0mph /  9.7km/h 94% 0.00in /  0mm
09:44 41.1 °F /  5.1 °C 39.5 °F /  4.2 °C 30.02in /  1016.5hPa East 3.0mph /  4.8km/h 6.0mph /  9.7km/h 94% 0.00in /  0mm
09:49 41.2 °F /  5.1 °C 39.6 °F /  4.2 °C 30.02in /  1016.5hPa East 2.0mph /  3.2km/h 6.0mph /  9.7km/h 94% 0.00in /  0mm
09:54 41.2 °F /  5.1 °C 39.6 °F /  4.2 °C 30.02in /  1016.5hPa East 2.0mph /  3.2km/h 6.0mph /  9.7km/h 94% 0.00in /  0mm
09:59 41.2 °F /  5.1 °C 39.6 °F /  4.2 °C 30.01in /  1016.1hPa East 1.0mph /  1.6km/h 6.0mph /  9.7km/h 94% 0.00in /  0mm
10:04 41.2 °F /  5.1 °C 39.6 °F /  4.2 °C 30.01in /  1016.1hPa East 2.0mph /  3.2km/h 6.0mph /  9.7km/h 94% 0.00in /  0mm
10:09 41.3 °F /  5.2 °C 39.7 °F /  4.3 °C 30.01in /  1016.1hPa East 2.0mph /  3.2km/h 7.0mph /  11.3km/h 94% 0.00in /  0mm
10:14 41.2 °F /  5.1 °C 39.6 °F /  4.2 °C 30.01in /  1016.1hPa East 2.0mph /  3.2km/h 7.0mph /  11.3km/h 94% 0.00in /  0mm
10:19 41.2 °F /  5.1 °C 39.6 °F /  4.2 °C 30.01in /  1016.1hPa East 2.0mph /  3.2km/h 7.0mph /  11.3km/h 94% 0.00in /  0mm
10:24 41.2 °F /  5.1 °C 39.6 °F /  4.2 °C 30.01in /  1016.1hPa East 3.0mph /  4.8km/h 5.0mph /  8km/h 94% 0.00in /  0mm
10:29 41.2 °F /  5.1 °C 39.6 °F /  4.2 °C 30.01in /  1016.1hPa East 5.0mph /  8km/h 6.0mph /  9.7km/h 94% 0.00in /  0mm
10:34 41.3 °F /  5.2 °C 39.7 °F /  4.3 °C 30.01in /  1016.1hPa East 1.0mph /  1.6km/h 5.0mph /  8km/h 94% 0.01in /  0.25mm
10:39 41.4 °F /  5.2 °C 39.8 °F /  4.3 °C 30.00in /  1015.8hPa East 5.0mph /  8km/h 6.0mph /  9.7km/h 94% 0.01in /  0.25mm
10:44 41.5 °F /  5.3 °C 39.9 °F /  4.4 °C 30.00in /  1015.8hPa East 2.0mph /  3.2km/h 7.0mph /  11.3km/h 94% 0.02in /  0.51mm
10:49 41.7 °F /  5.4 °C 40.1 °F /  4.5 °C 30.00in /  1015.8hPa East 1.0mph /  1.6km/h 5.0mph /  8km/h 94% 0.02in /  0.51mm
10:54 42.0 °F /  5.6 °C 40.4 °F /  4.7 °C 30.00in /  1015.8hPa East 1.0mph /  1.6km/h 5.0mph /  8km/h 94% 0.02in /  0.51mm
10:59 42.1 °F /  5.6 °C 40.5 °F /  4.7 °C 30.00in /  1015.8hPa East 1.0mph /  1.6km/h 6.0mph /  9.7km/h 94% 0.03in /  0.76mm
11:04 42.2 °F /  5.7 °C 40.6 °F /  4.8 °C 29.99in /  1015.5hPa East 2.0mph /  3.2km/h 6.0mph /  9.7km/h 94% 0.03in /  0.76mm
11:09 42.2 °F /  5.7 °C 40.6 °F /  4.8 °C 29.99in /  1015.5hPa East 2.0mph /  3.2km/h 6.0mph /  9.7km/h 94% 0.03in /  0.76mm
11:14 42.2 °F /  5.7 °C 40.6 °F /  4.8 °C 29.98in /  1015.1hPa East 2.0mph /  3.2km/h 5.0mph /  8km/h 94% 0.03in /  0.76mm
11:19 42.3 °F /  5.7 °C 40.7 °F /  4.8 °C 29.98in /  1015.1hPa East 1.0mph /  1.6km/h 5.0mph /  8km/h 94% 0.03in /  0.76mm
11:24 42.2 °F /  5.7 °C 40.6 °F /  4.8 °C 29.98in /  1015.1hPa Calm   5.0mph /  8km/h 94% 0.04in /  1.02mm
11:29 42.3 °F /  5.7 °C 40.7 °F /  4.8 °C 29.98in /  1015.1hPa ENE 2.0mph /  3.2km/h 5.0mph /  8km/h 94% 0.04in /  1.02mm
11:34 42.4 °F /  5.8 °C 40.8 °F /  4.9 °C 29.97in /  1014.8hPa ENE 2.0mph /  3.2km/h 3.0mph /  4.8km/h 94% 0.03in /  0.76mm
11:39 42.5 °F /  5.8 °C 40.9 °F /  4.9 °C 29.97in /  1014.8hPa ENE 2.0mph /  3.2km/h 4.0mph /  6.4km/h 94% 0.03in /  0.76mm
11:44 42.6 °F /  5.9 °C 41.0 °F /  5 °C 29.97in /  1014.8hPa ENE 2.0mph /  3.2km/h 5.0mph /  8km/h 94% 0.03in /  0.76mm
11:49 42.7 °F /  5.9 °C 41.1 °F /  5.1 °C 29.96in /  1014.4hPa ENE 1.0mph /  1.6km/h 4.0mph /  6.4km/h 94% 0.03in /  0.76mm
11:54 42.7 °F /  5.9 °C 41.1 °F /  5.1 °C 29.96in /  1014.4hPa ENE 2.0mph /  3.2km/h 7.0mph /  11.3km/h 94% 0.04in /  1.02mm
11:59 42.6 °F /  5.9 °C 41.0 °F /  5 °C 29.96in /  1014.4hPa ENE 2.0mph /  3.2km/h 4.0mph /  6.4km/h 94% 0.03in /  0.76mm
12:04 42.6 °F /  5.9 °C 41.0 °F /  5 °C 29.95in /  1014.1hPa ENE 2.0mph /  3.2km/h 7.0mph /  11.3km/h 94% 0.03in /  0.76mm
12:09 42.6 °F /  5.9 °C 41.0 °F /  5 °C 29.95in /  1014.1hPa ENE 2.0mph /  3.2km/h 7.0mph /  11.3km/h 94% 0.03in /  0.76mm
12:14 42.7 °F /  5.9 °C 41.1 °F /  5.1 °C 29.94in /  1013.8hPa ENE 2.0mph /  3.2km/h 5.0mph /  8km/h 94% 0.03in /  0.76mm
12:19 42.6 °F /  5.9 °C 41.0 °F /  5 °C 29.94in /  1013.8hPa ENE 2.0mph /  3.2km/h 5.0mph /  8km/h 94% 0.03in /  0.76mm
12:24 42.9 °F /  6.1 °C 41.3 °F /  5.2 °C 29.93in /  1013.4hPa ENE 1.0mph /  1.6km/h 3.0mph /  4.8km/h 94% 0.02in /  0.51mm
12:29 43.1 °F /  6.2 °C 41.5 °F /  5.3 °C 29.93in /  1013.4hPa ENE 2.0mph /  3.2km/h 4.0mph /  6.4km/h 94% 0.02in /  0.51mm
12:34 43.4 °F /  6.3 °C 41.8 °F /  5.4 °C 29.93in /  1013.4hPa ENE 2.0mph /  3.2km/h 3.0mph /  4.8km/h 94% 0.02in /  0.51mm
12:39 43.6 °F /  6.4 °C 42.0 °F /  5.6 °C 29.93in /  1013.4hPa ENE 3.0mph /  4.8km/h 4.0mph /  6.4km/h 94% 0.02in /  0.51mm
12:44 43.7 °F /  6.5 °C 42.1 °F /  5.6 °C 29.93in /  1013.4hPa ENE 3.0mph /  4.8km/h 4.0mph /  6.4km/h 94% 0.01in /  0.25mm
12:49 43.8 °F /  6.6 °C 42.2 °F /  5.7 °C 29.93in /  1013.4hPa ENE 2.0mph /  3.2km/h 3.0mph /  4.8km/h 94% 0.01in /  0.25mm
12:54 43.9 °F /  6.6 °C 42.3 °F /  5.7 °C 29.92in /  1013.1hPa ENE 2.0mph /  3.2km/h 4.0mph /  6.4km/h 94% 0.00in /  0mm
12:59 44.1 °F /  6.7 °C 42.5 °F /  5.8 °C 29.92in /  1013.1hPa ENE 2.0mph /  3.2km/h 4.0mph /  6.4km/h 94% 0.00in /  0mm
13:04 44.3 °F /  6.8 °C 42.7 °F /  5.9 °C 29.91in /  1012.8hPa ENE 2.0mph /  3.2km/h 4.0mph /  6.4km/h 94% 0.00in /  0mm
13:09 44.6 °F /  7 °C 43.0 °F /  6.1 °C 29.91in /  1012.8hPa ENE 2.0mph /  3.2km/h 4.0mph /  6.4km/h 94% 0.00in /  0mm
13:14 45.0 °F /  7.2 °C 43.4 °F /  6.3 °C 29.90in /  1012.4hPa ENE 1.0mph /  1.6km/h 4.0mph /  6.4km/h 94% 0.00in /  0mm
13:19 45.2 °F /  7.3 °C 43.6 °F /  6.4 °C 29.90in /  1012.4hPa ENE 2.0mph /  3.2km/h 5.0mph /  8km/h 94% 0.00in /  0mm
13:24 45.9 °F /  7.7 °C 44.3 °F /  6.8 °C 29.89in /  1012.1hPa ENE 2.0mph /  3.2km/h 5.0mph /  8km/h 94% 0.00in /  0mm
13:29 46.2 °F /  7.9 °C 44.6 °F /  7 °C 29.89in /  1012.1hPa ENE 2.0mph /  3.2km/h 4.0mph /  6.4km/h 94% 0.00in /  0mm
13:34 46.0 °F /  7.8 °C 44.1 °F /  6.7 °C 29.89in /  1012.1hPa ENE 2.0mph /  3.2km/h 4.0mph /  6.4km/h 93% 0.00in /  0mm
13:39 46.2 °F /  7.9 °C 44.3 °F /  6.8 °C 29.89in /  1012.1hPa Calm   3.0mph /  4.8km/h 93% 0.00in /  0mm
13:44 46.3 °F /  7.9 °C 44.4 °F /  6.9 °C 29.88in /  1011.7hPa ENE 2.0mph /  3.2km/h 3.0mph /  4.8km/h 93% 0.00in /  0mm
13:49 46.4 °F /  8 °C 44.5 °F /  6.9 °C 29.89in /  1012.1hPa ENE 2.0mph /  3.2km/h 3.0mph /  4.8km/h 93% 0.00in /  0mm
13:54 46.3 °F /  7.9 °C 44.4 °F /  6.9 °C 29.88in /  1011.7hPa Calm   5.0mph /  8km/h 93% 0.00in /  0mm
13:59 46.3 °F /  7.9 °C 44.4 °F /  6.9 °C 29.88in /  1011.7hPa ENE 3.0mph /  4.8km/h 4.0mph /  6.4km/h 93% 0.00in /  0mm
14:04 46.6 °F /  8.1 °C 44.7 °F /  7.1 °C 29.88in /  1011.7hPa ENE 3.0mph /  4.8km/h 4.0mph /  6.4km/h 93% 0.00in /  0mm
14:09 46.6 °F /  8.1 °C 44.7 °F /  7.1 °C 29.88in /  1011.7hPa ENE 2.0mph /  3.2km/h 4.0mph /  6.4km/h 93% 0.00in /  0mm
14:14 46.8 °F /  8.2 °C 44.9 °F /  7.2 °C 29.88in /  1011.7hPa ENE 2.0mph /  3.2km/h 4.0mph /  6.4km/h 93% 0.00in /  0mm
14:19 46.9 °F /  8.3 °C 44.7 °F /  7.1 °C 29.87in /  1011.4hPa ENE 2.0mph /  3.2km/h 4.0mph /  6.4km/h 92% 0.00in /  0mm
14:24 46.9 °F /  8.3 °C 44.7 °F /  7.1 °C 29.87in /  1011.4hPa ENE 2.0mph /  3.2km/h 4.0mph /  6.4km/h 92% 0.00in /  0mm
14:29 46.9 °F /  8.3 °C 44.7 °F /  7.1 °C 29.87in /  1011.4hPa ENE 2.0mph /  3.2km/h 5.0mph /  8km/h 92% 0.00in /  0mm
14:34 46.8 °F /  8.2 °C 44.6 °F /  7 °C 29.86in /  1011.1hPa Calm   4.0mph /  6.4km/h 92% 0.00in /  0mm
14:39 46.9 °F /  8.3 °C 44.7 °F /  7.1 °C 29.86in /  1011.1hPa Calm   3.0mph /  4.8km/h 92% 0.00in /  0mm
14:44 46.9 °F /  8.3 °C 44.7 °F /  7.1 °C 29.85in /  1010.7hPa ENE 1.0mph /  1.6km/h 4.0mph /  6.4km/h 92% 0.00in /  0mm
14:49 46.9 °F /  8.3 °C 44.7 °F /  7.1 °C 29.86in /  1011.1hPa ENE 1.0mph /  1.6km/h 4.0mph /  6.4km/h 92% 0.00in /  0mm
14:54 47.1 °F /  8.4 °C 44.9 °F /  7.2 °C 29.86in /  1011.1hPa ENE 1.0mph /  1.6km/h 4.0mph /  6.4km/h 92% 0.00in /  0mm
14:59 47.1 °F /  8.4 °C 44.6 °F /  7 °C 29.86in /  1011.1hPa Calm     91% 0.00in /  0mm
15:04 47.3 °F /  8.5 °C 45.1 °F /  7.3 °C 29.85in /  1010.7hPa Calm     92% 0.00in /  0mm
15:09 47.4 °F /  8.6 °C 44.9 °F /  7.2 °C 29.85in /  1010.7hPa Calm   3.0mph /  4.8km/h 91% 0.00in /  0mm
15:14 47.5 °F /  8.6 °C 45.0 °F /  7.2 °C 29.85in /  1010.7hPa ENE 1.0mph /  1.6km/h 3.0mph /  4.8km/h 91% 0.00in /  0mm
15:19 47.6 °F /  8.7 °C 45.1 °F /  7.3 °C 29.85in /  1010.7hPa ENE 1.0mph /  1.6km/h 3.0mph /  4.8km/h 91% 0.00in /  0mm
15:24 47.7 °F /  8.7 °C 45.2 °F /  7.3 °C 29.86in /  1011.1hPa Calm   2.0mph /  3.2km/h 91% 0.00in /  0mm
15:29 47.7 °F /  8.7 °C 45.2 °F /  7.3 °C 29.85in /  1010.7hPa ENE 1.0mph /  1.6km/h 2.0mph /  3.2km/h 91% 0.00in /  0mm
15:34 47.4 °F /  8.6 °C 44.9 °F /  7.2 °C 29.87in /  1011.4hPa ENE 2.0mph /  3.2km/h 3.0mph /  4.8km/h 91% 0.00in /  0mm
15:39 47.3 °F /  8.5 °C 44.8 °F /  7.1 °C 29.87in /  1011.4hPa Calm   2.0mph /  3.2km/h 91% 0.02in /  0.51mm
15:44 47.3 °F /  8.5 °C 44.8 °F /  7.1 °C 29.87in /  1011.4hPa Calm     91% 0.03in /  0.76mm
15:49 47.0 °F /  8.3 °C 44.5 °F /  6.9 °C 29.86in /  1011.1hPa Calm     91% 0.03in /  0.76mm
15:54 46.8 °F /  8.2 °C 44.3 °F /  6.8 °C 29.86in /  1011.1hPa Calm     91% 0.04in /  1.02mm
15:59 46.9 °F /  8.3 °C 44.4 °F /  6.9 °C 29.86in /  1011.1hPa Calm     91% 0.04in /  1.02mm
16:04 46.8 °F /  8.2 °C 44.3 °F /  6.8 °C 29.85in /  1010.7hPa Calm     91% 0.04in /  1.02mm
16:09 46.7 °F /  8.2 °C 44.5 °F /  6.9 °C 29.86in /  1011.1hPa Calm     92% 0.04in /  1.02mm
16:14 46.7 °F /  8.2 °C 44.5 °F /  6.9 °C 29.85in /  1010.7hPa Calm     92% 0.04in /  1.02mm
16:19 46.5 °F /  8.1 °C 44.0 °F /  6.7 °C 29.85in /  1010.7hPa Calm     91% 0.04in /  1.02mm
16:24 46.2 °F /  7.9 °C 43.7 °F /  6.5 °C 29.84in /  1010.4hPa ENE 1.0mph /  1.6km/h 3.0mph /  4.8km/h 91% 0.04in /  1.02mm
16:29 46.1 °F /  7.8 °C 43.9 °F /  6.6 °C 29.85in /  1010.7hPa ENE 3.0mph /  4.8km/h 3.0mph /  4.8km/h 92% 0.04in /  1.02mm
16:34 46.1 °F /  7.8 °C 43.9 °F /  6.6 °C 29.85in /  1010.7hPa Calm   4.0mph /  6.4km/h 92% 0.04in /  1.02mm
16:39 46.1 °F /  7.8 °C 43.9 °F /  6.6 °C 29.84in /  1010.4hPa ENE 1.0mph /  1.6km/h 2.0mph /  3.2km/h 92% 0.02in /  0.51mm
16:44 46.0 °F /  7.8 °C 43.8 °F /  6.6 °C 29.84in /  1010.4hPa Calm   3.0mph /  4.8km/h 92% 0.01in /  0.25mm
16:49 46.0 °F /  7.8 °C 43.8 °F /  6.6 °C 29.84in /  1010.4hPa Calm     92% 0.01in /  0.25mm
16:54 45.8 °F /  7.7 °C 43.6 °F /  6.4 °C 29.83in /  1010hPa Calm   3.0mph /  4.8km/h 92% 0.00in /  0mm
16:59 45.8 °F /  7.7 °C 43.6 °F /  6.4 °C 29.83in /  1010hPa ENE 1.0mph /  1.6km/h 5.0mph /  8km/h 92% 0.00in /  0mm
17:04 45.6 °F /  7.6 °C 43.4 °F /  6.3 °C 29.83in /  1010hPa ENE 1.0mph /  1.6km/h 5.0mph /  8km/h 92% 0.00in /  0mm
17:09 45.5 °F /  7.5 °C 43.3 °F /  6.3 °C 29.83in /  1010hPa ENE 1.0mph /  1.6km/h 3.0mph /  4.8km/h 92% 0.00in /  0mm
17:14 45.4 °F /  7.4 °C 43.2 °F /  6.2 °C 29.83in /  1010hPa ENE 1.0mph /  1.6km/h 2.0mph /  3.2km/h 92% 0.00in /  0mm
17:19 45.4 °F /  7.4 °C 43.2 °F /  6.2 °C 29.83in /  1010hPa Calm   1.0mph /  1.6km/h 92% 0.00in /  0mm
17:24 45.4 °F /  7.4 °C 43.2 °F /  6.2 °C 29.83in /  1010hPa Calm   2.0mph /  3.2km/h 92% 0.00in /  0mm
17:29 45.5 °F /  7.5 °C 43.3 °F /  6.3 °C 29.82in /  1009.7hPa Calm   2.0mph /  3.2km/h 92% 0.00in /  0mm
17:34 45.5 °F /  7.5 °C 43.3 °F /  6.3 °C 29.83in /  1010hPa Calm     92% 0.00in /  0mm
17:39 45.6 °F /  7.6 °C 43.4 °F /  6.3 °C 29.82in /  1009.7hPa Calm     92% 0.00in /  0mm
17:44 45.7 °F /  7.6 °C 43.5 °F /  6.4 °C 29.82in /  1009.7hPa Calm     92% 0.00in /  0mm
17:49 45.8 °F /  7.7 °C 43.9 °F /  6.6 °C 29.82in /  1009.7hPa Calm     93% 0.00in /  0mm
17:54 45.8 °F /  7.7 °C 43.9 °F /  6.6 °C 29.82in /  1009.7hPa Calm     93% 0.00in /  0mm
17:59 45.8 °F /  7.7 °C 43.9 °F /  6.6 °C 29.81in /  1009.4hPa Calm     93% 0.00in /  0mm
18:04 45.7 °F /  7.6 °C 43.8 °F /  6.6 °C 29.81in /  1009.4hPa Calm     93% 0.00in /  0mm
18:09 45.8 °F /  7.7 °C 43.9 °F /  6.6 °C 29.81in /  1009.4hPa Calm     93% 0.00in /  0mm
18:14 46.0 °F /  7.8 °C 44.1 °F /  6.7 °C 29.81in /  1009.4hPa Calm     93% 0.00in /  0mm
18:19 46.1 °F /  7.8 °C 44.2 °F /  6.8 °C 29.81in /  1009.4hPa Calm     93% 0.00in /  0mm
18:24 46.2 °F /  7.9 °C 44.3 °F /  6.8 °C 29.81in /  1009.4hPa ENE 1.0mph /  1.6km/h 2.0mph /  3.2km/h 93% 0.00in /  0mm
18:29 46.3 °F /  7.9 °C 44.4 °F /  6.9 °C 29.81in /  1009.4hPa Calm   3.0mph /  4.8km/h 93% 0.00in /  0mm
18:34 46.5 °F /  8.1 °C 44.6 °F /  7 °C 29.81in /  1009.4hPa Calm   3.0mph /  4.8km/h 93% 0.00in /  0mm
18:39 46.3 °F /  7.9 °C 44.1 °F /  6.7 °C 29.80in /  1009hPa Calm   1.0mph /  1.6km/h 92% 0.00in /  0mm
18:44 46.2 °F /  7.9 °C 44.3 °F /  6.8 °C 29.80in /  1009hPa Calm   1.0mph /  1.6km/h 93% 0.00in /  0mm
18:49 46.3 °F /  7.9 °C 44.4 °F /  6.9 °C 29.80in /  1009hPa Calm     93% 0.00in /  0mm
18:54 46.3 °F /  7.9 °C 44.4 °F /  6.9 °C 29.80in /  1009hPa Calm     93% 0.00in /  0mm
18:59 46.2 °F /  7.9 °C 44.3 °F /  6.8 °C 29.79in /  1008.7hPa Calm     93% 0.00in /  0mm
19:04 46.3 °F /  7.9 °C 44.4 °F /  6.9 °C 29.79in /  1008.7hPa Calm     93% 0.00in /  0mm
19:09 46.4 °F /  8 °C 44.5 °F /  6.9 °C 29.79in /  1008.7hPa Calm     93% 0.00in /  0mm
19:14 46.4 °F /  8 °C 44.5 °F /  6.9 °C 29.78in /  1008.4hPa Calm     93% 0.00in /  0mm
19:19 46.4 °F /  8 °C 44.5 °F /  6.9 °C 29.78in /  1008.4hPa Calm     93% 0.00in /  0mm
19:24 46.5 °F /  8.1 °C 44.6 °F /  7 °C 29.78in /  1008.4hPa Calm     93% 0.00in /  0mm
19:29 46.6 °F /  8.1 °C 44.7 °F /  7.1 °C 29.77in /  1008hPa Calm     93% 0.00in /  0mm
19:34 46.5 °F /  8.1 °C 44.6 °F /  7 °C 29.77in /  1008hPa Calm     93% 0.00in /  0mm
19:39 46.6 °F /  8.1 °C 44.7 °F /  7.1 °C 29.77in /  1008hPa Calm     93% 0.00in /  0mm
19:44 46.8 °F /  8.2 °C 44.9 °F /  7.2 °C 29.77in /  1008hPa Calm     93% 0.00in /  0mm
19:49 47.0 °F /  8.3 °C 45.1 °F /  7.3 °C 29.77in /  1008hPa Calm     93% 0.00in /  0mm
19:54 47.2 °F /  8.4 °C 45.3 °F /  7.4 °C 29.76in /  1007.7hPa Calm     93% 0.00in /  0mm
19:59 47.4 °F /  8.6 °C 45.5 °F /  7.5 °C 29.76in /  1007.7hPa ENE 4.0mph /  6.4km/h 4.0mph /  6.4km/h 93% 0.00in /  0mm
20:04 47.8 °F /  8.8 °C 45.9 °F /  7.7 °C 29.77in /  1008hPa East 3.0mph /  4.8km/h 6.0mph /  9.7km/h 93% 0.00in /  0mm
20:09 48.1 °F /  8.9 °C 45.9 °F /  7.7 °C 29.76in /  1007.7hPa East 2.0mph /  3.2km/h 6.0mph /  9.7km/h 92% 0.00in /  0mm
20:14 48.4 °F /  9.1 °C 46.2 °F /  7.9 °C 29.76in /  1007.7hPa East 2.0mph /  3.2km/h 6.0mph /  9.7km/h 92% 0.00in /  0mm
20:19 48.7 °F /  9.3 °C 46.5 °F /  8.1 °C 29.76in /  1007.7hPa East 2.0mph /  3.2km/h 6.0mph /  9.7km/h 92% 0.00in /  0mm
20:24 49.0 °F /  9.4 °C 46.8 °F /  8.2 °C 29.75in /  1007.3hPa ESE 1.0mph /  1.6km/h 7.0mph /  11.3km/h 92% 0.00in /  0mm
20:29 49.2 °F /  9.6 °C 46.7 °F /  8.2 °C 29.75in /  1007.3hPa Calm   5.0mph /  8km/h 91% 0.00in /  0mm
20:34 49.3 °F /  9.6 °C 46.8 °F /  8.2 °C 29.75in /  1007.3hPa ESE 3.0mph /  4.8km/h 4.0mph /  6.4km/h 91% 0.00in /  0mm
20:39 49.5 °F /  9.7 °C 46.7 °F /  8.2 °C 29.75in /  1007.3hPa SE 1.0mph /  1.6km/h 5.0mph /  8km/h 90% 0.00in /  0mm
20:44 49.8 °F /  9.9 °C 46.7 °F /  8.2 °C 29.75in /  1007.3hPa SE 3.0mph /  4.8km/h 7.0mph /  11.3km/h 89% 0.00in /  0mm
20:49 50.0 °F /  10 °C 46.9 °F /  8.3 °C 29.75in /  1007.3hPa SE 3.0mph /  4.8km/h 7.0mph /  11.3km/h 89% 0.00in /  0mm
20:54 50.1 °F /  10.1 °C 46.7 °F /  8.2 °C 29.75in /  1007.3hPa Calm   6.0mph /  9.7km/h 88% 0.00in /  0mm
21:04 50.3 °F /  10.2 °C 46.3 °F /  7.9 °C 29.74in /  1007hPa SE 1.0mph /  1.6km/h 4.0mph /  6.4km/h 86% 0.00in /  0mm
21:09 50.2 °F /  10.1 °C 46.2 °F /  7.9 °C 29.74in /  1007hPa Calm   3.0mph /  4.8km/h 86% 0.00in /  0mm
21:14 50.2 °F /  10.1 °C 46.2 °F /  7.9 °C 29.74in /  1007hPa SE 1.0mph /  1.6km/h 3.0mph /  4.8km/h 86% 0.00in /  0mm
21:19 49.7 °F /  9.8 °C 45.7 °F /  7.6 °C 29.74in /  1007hPa Calm   1.0mph /  1.6km/h 86% 0.00in /  0mm
21:24 49.4 °F /  9.7 °C 45.4 °F /  7.4 °C 29.74in /  1007hPa Calm   1.0mph /  1.6km/h 86% 0.01in /  0.25mm
21:29 49.0 °F /  9.4 °C 45.0 °F /  7.2 °C 29.73in /  1006.7hPa Calm   1.0mph /  1.6km/h 86% 0.01in /  0.25mm
21:34 49.0 °F /  9.4 °C 45.3 °F /  7.4 °C 29.73in /  1006.7hPa Calm     87% 0.01in /  0.25mm
21:39 48.9 °F /  9.4 °C 45.2 °F /  7.3 °C 29.73in /  1006.7hPa Calm     87% 0.01in /  0.25mm
21:44 48.7 °F /  9.3 °C 45.3 °F /  7.4 °C 29.73in /  1006.7hPa Calm     88% 0.01in /  0.25mm
21:49 48.5 °F /  9.2 °C 45.1 °F /  7.3 °C 29.73in /  1006.7hPa Calm     88% 0.02in /  0.51mm
21:54 48.3 °F /  9.1 °C 44.9 °F /  7.2 °C 29.72in /  1006.3hPa Calm     88% 0.02in /  0.51mm
21:59 48.3 °F /  9.1 °C 45.2 °F /  7.3 °C 29.72in /  1006.3hPa Calm     89% 0.02in /  0.51mm
22:04 48.5 °F /  9.2 °C 45.4 °F /  7.4 °C 29.72in /  1006.3hPa Calm     89% 0.02in /  0.51mm
22:09 48.6 °F /  9.2 °C 45.5 °F /  7.5 °C 29.71in /  1006hPa Calm     89% 0.03in /  0.76mm
22:14 48.8 °F /  9.3 °C 45.7 °F /  7.6 °C 29.71in /  1006hPa Calm     89% 0.04in /  1.02mm
22:24 48.7 °F /  9.3 °C 45.6 °F /  7.6 °C 29.71in /  1006hPa SE 1.0mph /  1.6km/h 3.0mph /  4.8km/h 89% 0.03in /  0.76mm
22:29 48.8 °F /  9.3 °C 45.7 °F /  7.6 °C 29.70in /  1005.6hPa SE 1.0mph /  1.6km/h 3.0mph /  4.8km/h 89% 0.03in /  0.76mm
22:44 49.0 °F /  9.4 °C 45.9 °F /  7.7 °C 29.69in /  1005.3hPa SSE 1.0mph /  1.6km/h 6.0mph /  9.7km/h 89% 0.04in /  1.02mm
22:49 49.0 °F /  9.4 °C 45.9 °F /  7.7 °C 29.69in /  1005.3hPa SSE 1.0mph /  1.6km/h 3.0mph /  4.8km/h 89% 0.04in /  1.02mm
22:59 48.6 °F /  9.2 °C 45.2 °F /  7.3 °C 29.68in /  1005hPa SSE 1.0mph /  1.6km/h 3.0mph /  4.8km/h 88% 0.04in /  1.02mm
23:04 48.5 °F /  9.2 °C 45.4 °F /  7.4 °C 29.68in /  1005hPa Calm   2.0mph /  3.2km/h 89% 0.05in /  1.27mm
23:09 48.4 °F /  9.1 °C 45.3 °F /  7.4 °C 29.68in /  1005hPa Calm   2.0mph /  3.2km/h 89% 0.04in /  1.02mm
23:14 48.3 °F /  9.1 °C 45.2 °F /  7.3 °C 29.68in /  1005hPa Calm   2.0mph /  3.2km/h 89% 0.03in /  0.76mm
23:19 48.1 °F /  8.9 °C 45.0 °F /  7.2 °C 29.68in /  1005hPa Calm   3.0mph /  4.8km/h 89% 0.04in /  1.02mm
23:24 48.0 °F /  8.9 °C 44.9 °F /  7.2 °C 29.67in /  1004.6hPa SSE 1.0mph /  1.6km/h 3.0mph /  4.8km/h 89% 0.04in /  1.02mm
23:29 47.9 °F /  8.8 °C 44.8 °F /  7.1 °C 29.67in /  1004.6hPa SSE 1.0mph /  1.6km/h 3.0mph /  4.8km/h 89% 0.04in /  1.02mm
23:34 47.9 °F /  8.8 °C 44.8 °F /  7.1 °C 29.66in /  1004.3hPa SSE 2.0mph /  3.2km/h 3.0mph /  4.8km/h 89% 0.04in /  1.02mm
23:44 48.0 °F /  8.9 °C 44.9 °F /  7.2 °C 29.66in /  1004.3hPa SSE 2.0mph /  3.2km/h 5.0mph /  8km/h 89% 0.04in /  1.02mm
23:54 48.1 °F /  8.9 °C 45.0 °F /  7.2 °C 29.64in /  1003.6hPa SSE 1.0mph /  1.6km/h 4.0mph /  6.4km/h 89% 0.04in /  1.02mm
23:59 48.0 °F /  8.9 °C 44.6 °F /  7 °C 29.63in /  1003.3hPa Calm   3.0mph /  4.8km/h 88% 0.04in /  1.02mm
Buffalo, New York, USA
Compliments of Weather Underground - 2.25 mb